createdAt,value
2022-09-23T00:01:04.785Z,6.05
2022-09-23T00:03:33.499Z,4.72
2022-09-23T00:06:02.497Z,6.07
2022-09-23T00:08:30.733Z,7.10
2022-09-23T00:11:05.590Z,5.97
2022-09-23T00:13:33.181Z,4.25
2022-09-23T00:16:04.240Z,4.65
2022-09-23T00:18:31.074Z,4.60
2022-09-23T00:20:57.894Z,6.55
2022-09-23T00:23:24.800Z,9.57
2022-09-23T00:26:05.962Z,5.68
2022-09-23T00:28:33.335Z,5.45
2022-09-23T00:31:07.500Z,4.40
2022-09-23T00:33:35.039Z,8.10
2022-09-23T00:36:04.230Z,6.25
2022-09-23T00:38:31.534Z,5.95
2022-09-23T00:40:58.752Z,6.60
2022-09-23T00:43:37.996Z,6.60
2022-09-23T00:46:06.895Z,7.47
2022-09-23T00:48:35.951Z,6.63
2022-09-23T00:51:02.859Z,6.32
2022-09-23T00:53:29.683Z,6.40
2022-09-23T00:56:02.939Z,5.00
2022-09-23T00:58:33.228Z,7.30
2022-09-23T01:01:01.707Z,7.65
2022-09-23T01:03:32.312Z,5.57
2022-09-23T01:06:00.039Z,8.55
2022-09-23T01:08:28.295Z,7.15
2022-09-23T01:11:14.919Z,7.30
2022-09-23T01:14:01.443Z,9.38
2022-09-23T01:16:36.544Z,6.97
2022-09-23T01:19:22.488Z,5.57
2022-09-23T01:21:58.353Z,6.60
2022-09-23T01:24:36.080Z,6.00
2022-09-23T01:27:13.371Z,9.40
2022-09-23T01:29:59.939Z,9.52
2022-09-23T01:32:47.306Z,5.55
2022-09-23T01:35:27.515Z,4.85
2022-09-23T01:38:13.575Z,5.65
2022-09-23T01:40:52.836Z,6.78
2022-09-23T01:43:32.706Z,7.70
2022-09-23T01:46:01.835Z,16.10
2022-09-23T01:48:38.003Z,8.02
2022-09-23T01:51:12.580Z,10.18
2022-09-23T01:53:53.501Z,5.65
2022-09-23T01:56:28.310Z,7.97
2022-09-23T01:59:06.759Z,7.00
2022-09-23T02:01:41.880Z,6.25
2022-09-23T02:04:17.700Z,10.23
2022-09-23T02:06:51.826Z,9.02
2022-09-23T02:09:25.255Z,8.52
2022-09-23T02:12:04.981Z,6.32
2022-09-23T02:14:39.199Z,8.48
2022-09-23T02:17:13.441Z,9.77
2022-09-23T02:19:48.119Z,7.15
2022-09-23T02:22:19.576Z,9.32
2022-09-23T02:24:46.717Z,14.82
2022-09-23T02:27:26.854Z,8.48
2022-09-23T02:30:03.290Z,9.02
2022-09-23T02:32:48.595Z,5.63
2022-09-23T02:35:33.434Z,9.23
2022-09-23T02:38:18.455Z,7.60
2022-09-23T02:40:59.209Z,7.40
2022-09-23T02:43:39.625Z,11.18
2022-09-23T02:46:07.771Z,11.27
2022-09-23T02:48:41.521Z,7.57
2022-09-23T02:51:10.541Z,6.53
2022-09-23T02:53:38.182Z,7.03
2022-09-23T02:56:16.785Z,7.57
2022-09-23T02:58:44.364Z,6.85
2022-09-23T03:01:22.291Z,9.35
2022-09-23T03:03:57.490Z,10.50
2022-09-23T03:06:32.604Z,7.22
2022-09-23T03:09:11.755Z,10.13
2022-09-23T03:11:43.985Z,9.73
2022-09-23T03:14:22.443Z,9.57
2022-09-23T03:16:56.950Z,5.45
2022-09-23T03:19:34.321Z,10.68
2022-09-23T03:22:18.720Z,14.68
2022-09-23T03:24:51.827Z,8.98
2022-09-23T03:27:26.946Z,8.63
2022-09-23T03:29:55.079Z,7.13
2022-09-23T03:32:25.381Z,8.30
2022-09-23T03:34:55.785Z,7.78
2022-09-23T03:37:30.550Z,8.00
2022-09-23T03:40:09.493Z,18.40
2022-09-23T03:42:38.006Z,9.63
2022-09-23T03:45:13.581Z,7.00
2022-09-23T03:47:40.670Z,9.68
2022-09-23T03:50:08.696Z,6.65
2022-09-23T03:52:39.974Z,10.15
2022-09-23T03:55:11.520Z,8.85
2022-09-23T03:57:39.048Z,7.15
2022-09-23T04:00:07.680Z,9.82
2022-09-23T04:02:35.550Z,7.38
2022-09-23T04:05:02.860Z,9.20
2022-09-23T04:07:29.764Z,9.05
2022-09-23T04:10:00.175Z,10.55
2022-09-23T04:12:29.334Z,7.82
2022-09-23T04:14:56.186Z,8.52
2022-09-23T04:17:23.320Z,9.52
2022-09-23T04:19:50.785Z,12.13
2022-09-23T04:22:20.040Z,7.93
2022-09-23T04:24:47.214Z,8.65
2022-09-23T04:27:14.140Z,8.38
2022-09-23T04:29:41.815Z,8.48
2022-09-23T04:32:08.920Z,8.43
2022-09-23T04:34:35.845Z,9.98
2022-09-23T04:37:03.012Z,14.73
2022-09-23T04:39:30.220Z,8.63
2022-09-23T04:41:57.125Z,6.82
2022-09-23T04:44:28.311Z,10.10
2022-09-23T04:46:57.108Z,11.38
2022-09-23T04:49:24.144Z,7.72
2022-09-23T04:51:51.087Z,10.20
2022-09-23T04:54:18.561Z,11.85
2022-09-23T04:56:50.166Z,9.38
2022-09-23T04:59:17.091Z,10.25
2022-09-23T05:01:44.663Z,9.80
2022-09-23T05:04:17.116Z,9.65
2022-09-23T05:06:46.275Z,9.23
2022-09-23T05:09:18.515Z,9.13
2022-09-23T05:11:46.329Z,11.02
2022-09-23T05:14:16.420Z,13.05
2022-09-23T05:16:43.709Z,8.93
2022-09-23T05:19:13.944Z,7.05
2022-09-23T05:21:41.075Z,8.38
2022-09-23T05:24:09.454Z,6.28
2022-09-23T05:26:36.640Z,7.32
2022-09-23T05:29:06.184Z,7.50
2022-09-23T05:31:36.821Z,18.00
2022-09-23T05:34:11.050Z,7.85
2022-09-23T05:36:40.118Z,7.32
2022-09-23T05:39:09.129Z,6.25
2022-09-23T05:41:38.455Z,6.32
2022-09-23T05:44:10.853Z,6.32
2022-09-23T05:46:40.489Z,6.07
2022-09-23T05:49:09.080Z,4.57
2022-09-23T05:51:37.365Z,7.47
2022-09-23T05:54:08.041Z,5.38
2022-09-23T05:56:46.057Z,7.97
2022-09-23T05:59:29.585Z,7.30
2022-09-23T06:01:57.196Z,5.78
2022-09-23T06:04:36.928Z,7.00
2022-09-23T06:07:21.653Z,6.35
2022-09-23T06:09:48.687Z,6.25
2022-09-23T06:12:18.780Z,7.75
2022-09-23T06:14:49.665Z,5.50
2022-09-23T06:17:25.535Z,7.43
2022-09-23T06:19:52.405Z,6.30
2022-09-23T06:22:24.671Z,7.38
2022-09-23T06:25:03.483Z,8.63
2022-09-23T06:27:30.338Z,8.02
2022-09-23T06:30:06.766Z,6.00
2022-09-23T06:32:52.286Z,5.47
2022-09-23T06:35:27.444Z,6.30
2022-09-23T06:38:05.830Z,6.85
2022-09-23T06:40:37.948Z,6.20
2022-09-23T06:43:04.943Z,11.13
2022-09-23T06:45:46.546Z,8.15
2022-09-23T06:48:13.562Z,7.32
2022-09-23T06:50:43.478Z,7.88
2022-09-23T06:53:10.356Z,8.02
2022-09-23T06:55:48.659Z,11.57
2022-09-23T06:58:32.894Z,9.75
2022-09-23T07:01:18.324Z,11.20
2022-09-23T07:06:51.967Z,10.45
2022-09-23T07:09:19.235Z,8.65
2022-09-23T07:11:52.327Z,9.80
2022-09-23T07:17:14.232Z,9.82
2022-09-23T07:19:41.189Z,10.05
2022-09-23T07:22:11.807Z,10.90
2022-09-23T07:24:43.970Z,15.52
2022-09-23T07:27:16.630Z,13.43
2022-09-23T07:29:48.407Z,12.32
2022-09-23T07:32:41.513Z,11.23
2022-09-23T07:35:12.035Z,13.40
2022-09-23T07:37:58.458Z,11.60
2022-09-23T07:40:25.415Z,12.70
2022-09-23T07:42:52.366Z,11.98
2022-09-23T07:45:23.695Z,12.75
2022-09-23T07:47:50.744Z,11.43
2022-09-23T07:50:19.307Z,12.48
2022-09-23T07:53:16.836Z,12.10
2022-09-23T07:55:43.822Z,15.07
2022-09-23T07:58:10.900Z,13.35
2022-09-23T08:00:53.444Z,16.98
2022-09-23T08:03:59.264Z,17.20
2022-09-23T08:06:41.171Z,15.32
2022-09-23T08:09:30.626Z,17.98
2022-09-23T08:12:03.295Z,16.45
2022-09-23T08:14:54.394Z,16.42
2022-09-23T08:17:30.061Z,21.08
2022-09-23T08:19:57.642Z,16.98
2022-09-23T08:22:25.031Z,18.75
2022-09-23T08:24:53.123Z,16.85
2022-09-23T08:27:22.515Z,19.45
2022-09-23T08:29:50.777Z,24.02
2022-09-23T08:32:18.120Z,22.48
2022-09-23T08:34:45.370Z,22.63
2022-09-23T08:37:12.587Z,20.23
2022-09-23T08:39:39.580Z,20.30
2022-09-23T08:42:17.402Z,23.42
2022-09-23T08:44:49.459Z,19.10
2022-09-23T08:47:23.952Z,18.17
2022-09-23T08:50:01.820Z,17.33
2022-09-23T08:52:51.342Z,16.63
2022-09-23T08:55:19.953Z,18.67
2022-09-23T08:58:23.432Z,18.98
2022-09-23T09:00:48.101Z,18.50
2022-09-23T09:03:27.191Z,18.70
2022-09-23T09:05:57.077Z,19.50
2022-09-23T09:08:31.618Z,20.42
2022-09-23T09:11:00.131Z,22.60
2022-09-23T09:13:33.810Z,22.25
2022-09-23T09:16:11.816Z,20.17
2022-09-23T09:18:53.640Z,24.45
2022-09-23T09:21:26.889Z,17.75
2022-09-23T09:23:56.920Z,20.15
2022-09-23T09:26:27.627Z,16.95
2022-09-23T09:29:33.805Z,29.95
2022-09-23T09:31:58.398Z,19.85
2022-09-23T09:34:42.261Z,59.83
2022-09-23T09:37:15.792Z,17.15
2022-09-23T09:39:42.906Z,18.02
2022-09-23T09:42:21.751Z,21.92
2022-09-23T09:44:53.122Z,23.17
2022-09-23T09:47:31.260Z,19.88
2022-09-23T09:50:13.392Z,20.25
2022-09-23T09:55:16.951Z,19.15
2022-09-23T09:57:55.845Z,16.50
2022-09-23T10:00:26.187Z,16.42
2022-09-23T10:03:00.496Z,17.77
2022-09-23T10:05:33.972Z,16.98
2022-09-23T10:08:21.990Z,18.90
2022-09-23T10:11:00.535Z,17.52
2022-09-23T10:13:29.803Z,18.13
2022-09-23T10:16:00.159Z,17.00
2022-09-23T10:18:28.686Z,16.88
2022-09-23T10:21:08.580Z,14.55
2022-09-23T10:23:41.945Z,16.13
2022-09-23T10:26:24.316Z,14.00
2022-09-23T10:28:53.906Z,10.90
2022-09-23T10:31:25.521Z,12.30
2022-09-23T10:33:55.060Z,11.55
2022-09-23T10:36:22.451Z,10.35
2022-09-23T10:38:55.483Z,10.35
2022-09-23T10:41:45.685Z,6.82
2022-09-23T10:44:40.479Z,8.25
2022-09-23T10:47:18.097Z,10.70
2022-09-23T10:50:08.287Z,9.00
2022-09-23T10:52:49.847Z,9.00
2022-09-23T10:55:26.740Z,8.98
2022-09-23T10:58:12.627Z,5.95
2022-09-23T11:00:58.710Z,5.60
2022-09-23T11:03:54.676Z,5.10
2022-09-23T11:06:40.567Z,5.22
2022-09-23T11:09:24.837Z,5.15
2022-09-23T11:12:02.170Z,4.85
2022-09-23T11:14:31.335Z,7.35
2022-09-23T11:17:15.039Z,9.48
2022-09-23T11:20:01.663Z,17.50
2022-09-23T11:22:47.722Z,8.73
2022-09-23T11:25:18.509Z,7.07
2022-09-23T11:27:58.213Z,6.15
2022-09-23T11:30:38.913Z,9.50
2022-09-23T11:33:21.319Z,6.10
2022-09-23T11:35:56.120Z,6.00
2022-09-23T11:38:30.346Z,6.30
2022-09-23T11:41:02.756Z,4.28
2022-09-23T11:43:39.721Z,5.75
2022-09-23T11:46:17.988Z,11.75
2022-09-23T11:49:02.555Z,6.35
2022-09-23T11:51:37.173Z,7.32
2022-09-23T11:54:20.944Z,10.18
2022-09-23T11:56:54.213Z,4.78
2022-09-23T11:59:39.189Z,5.40
2022-09-23T12:02:30.818Z,6.18
2022-09-23T12:05:05.426Z,3.90
2022-09-23T12:07:56.332Z,4.68
2022-09-23T12:10:38.784Z,3.20
2022-09-23T12:13:16.522Z,7.80
2022-09-23T12:15:53.063Z,2.03
2022-09-23T12:18:26.836Z,4.25
2022-09-23T12:21:32.747Z,4.80
2022-09-23T12:24:19.293Z,3.38
2022-09-23T12:26:53.666Z,3.53
2022-09-23T12:29:21.494Z,2.67
2022-09-23T12:31:50.325Z,2.88
2022-09-23T12:34:24.907Z,1.77
2022-09-23T12:36:52.279Z,3.80
2022-09-23T12:39:32.089Z,3.00
2022-09-23T12:42:02.779Z,3.38
2022-09-23T12:44:38.036Z,1.80
2022-09-23T12:47:30.095Z,2.22
2022-09-23T12:49:57.597Z,2.85
2022-09-23T12:52:26.646Z,1.60
2022-09-23T12:55:13.870Z,2.33
2022-09-23T12:57:42.072Z,4.95
2022-09-23T13:00:12.774Z,4.85
2022-09-23T13:03:10.393Z,4.55
2022-09-23T13:05:56.709Z,3.63
2022-09-23T13:08:25.734Z,3.58
2022-09-23T13:10:58.941Z,3.55
2022-09-23T13:13:36.040Z,3.47
2022-09-23T13:16:15.807Z,5.55
2022-09-23T13:18:55.137Z,4.97
2022-09-23T13:21:42.644Z,4.20
2022-09-23T13:24:22.005Z,4.47
2022-09-23T13:27:03.619Z,7.60
2022-09-23T13:29:41.598Z,7.37
2022-09-23T13:32:15.643Z,5.13
2022-09-23T13:34:47.052Z,4.10
2022-09-23T13:37:26.417Z,11.98
2022-09-23T13:40:10.758Z,6.05
2022-09-23T13:42:44.571Z,5.43
2022-09-23T13:45:19.774Z,4.80
2022-09-23T13:47:49.437Z,5.22
2022-09-23T13:50:22.665Z,3.13
2022-09-23T13:52:55.393Z,5.32
2022-09-23T13:57:59.191Z,3.45
2022-09-23T14:00:27.479Z,3.70
2022-09-23T14:02:54.572Z,5.60
2022-09-23T14:05:24.460Z,6.72
2022-09-23T14:07:53.274Z,3.85
2022-09-23T14:10:23.949Z,2.97
2022-09-23T14:12:53.382Z,4.30
2022-09-23T14:15:21.759Z,3.22
2022-09-23T14:18:03.689Z,5.70
2022-09-23T14:20:30.956Z,3.80
2022-09-23T14:23:11.402Z,6.40
2022-09-23T14:25:39.635Z,6.13
2022-09-23T14:30:49.058Z,2.95
2022-09-23T14:33:23.091Z,4.50
2022-09-23T14:35:55.000Z,2.70
2022-09-23T14:38:34.833Z,3.45
2022-09-23T14:41:18.011Z,4.65
2022-09-23T14:44:00.909Z,4.10
2022-09-23T14:49:00.221Z,5.35
2022-09-23T14:51:47.527Z,4.15
2022-09-23T14:54:26.104Z,7.32
2022-09-23T14:56:55.568Z,3.67
2022-09-23T14:59:36.199Z,4.40
2022-09-23T15:02:33.103Z,5.70
2022-09-23T15:05:15.000Z,4.85
2022-09-23T15:07:44.843Z,5.07
2022-09-23T15:10:23.870Z,5.10
2022-09-23T15:12:53.164Z,4.97
2022-09-23T15:15:28.366Z,5.50
2022-09-23T15:17:56.113Z,4.97
2022-09-23T15:20:27.368Z,6.78
2022-09-23T15:22:56.199Z,7.82
2022-09-23T15:25:33.192Z,5.68
2022-09-23T15:28:16.939Z,6.60
2022-09-23T15:30:44.320Z,5.15
2022-09-23T15:33:15.231Z,6.70
2022-09-23T15:35:47.898Z,8.93
2022-09-23T15:40:45.263Z,5.88
2022-09-23T15:43:20.488Z,7.93
2022-09-23T15:45:57.487Z,10.93
2022-09-23T15:48:29.448Z,8.80
2022-09-23T15:50:56.750Z,10.23
2022-09-23T15:53:27.374Z,5.90
2022-09-23T15:55:54.806Z,6.65
2022-09-23T15:58:24.129Z,6.25
2022-09-23T16:00:56.567Z,8.20
2022-09-23T16:03:28.975Z,5.75
2022-09-23T16:06:00.449Z,6.53
2022-09-23T16:08:29.177Z,8.20
2022-09-23T16:10:57.122Z,6.32
2022-09-23T16:13:26.943Z,4.43
2022-09-23T16:15:54.972Z,5.72
2022-09-23T16:18:22.272Z,4.38
2022-09-23T16:20:52.266Z,4.40
2022-09-23T16:23:37.840Z,4.05
2022-09-23T16:26:11.674Z,3.72
2022-09-23T16:28:39.246Z,3.60
2022-09-23T16:31:06.638Z,5.13
2022-09-23T16:33:34.066Z,3.30
2022-09-23T16:36:05.822Z,5.63
2022-09-23T16:38:35.023Z,4.80
2022-09-23T16:41:03.510Z,5.00
2022-09-23T16:43:33.701Z,3.35
2022-09-23T16:46:01.599Z,4.53
2022-09-23T16:48:28.946Z,3.83
2022-09-23T16:50:56.164Z,4.75
2022-09-23T16:53:24.169Z,2.75
2022-09-23T16:55:53.757Z,3.95
2022-09-23T16:58:21.500Z,5.07
2022-09-23T17:00:58.561Z,5.43
2022-09-23T17:03:35.873Z,4.30
2022-09-23T17:06:07.936Z,4.85
2022-09-23T17:08:35.898Z,3.67
2022-09-23T17:11:03.556Z,3.63
2022-09-23T17:13:31.656Z,3.20
2022-09-23T17:15:59.604Z,2.33
2022-09-23T17:18:28.138Z,3.65
2022-09-23T17:20:59.905Z,3.28
2022-09-23T17:23:28.707Z,3.83
2022-09-23T17:25:56.340Z,3.95
2022-09-23T17:28:24.156Z,4.93
2022-09-23T17:30:58.163Z,3.50
2022-09-23T17:33:26.511Z,2.58
2022-09-23T17:35:54.857Z,3.45
2022-09-23T17:38:28.827Z,1.95
2022-09-23T17:40:59.477Z,4.25
2022-09-23T17:43:27.644Z,2.00
2022-09-23T17:45:58.433Z,1.92
2022-09-23T17:48:26.542Z,4.72
2022-09-23T17:50:58.260Z,3.55
2022-09-23T17:53:26.513Z,4.55
2022-09-23T17:55:56.283Z,7.93
2022-09-23T17:58:25.945Z,5.25
2022-09-23T18:00:53.418Z,2.35
2022-09-23T18:03:20.688Z,2.00
2022-09-23T18:05:47.838Z,2.97
2022-09-23T18:08:14.947Z,2.63
2022-09-23T18:10:42.410Z,3.70
2022-09-23T18:13:12.361Z,3.47
2022-09-23T18:15:40.626Z,4.28
2022-09-23T18:18:08.296Z,5.82
2022-09-23T18:20:35.615Z,3.38
2022-09-23T18:23:02.764Z,4.57
2022-09-23T18:25:39.232Z,6.95
2022-09-23T18:28:07.196Z,2.58
2022-09-23T18:30:34.335Z,5.28
2022-09-23T18:33:02.464Z,2.05
2022-09-23T18:35:32.766Z,3.03
2022-09-23T18:37:59.907Z,4.28
2022-09-23T18:40:27.165Z,3.45
2022-09-23T18:42:54.398Z,8.25
2022-09-23T18:45:21.840Z,3.28
2022-09-23T18:47:59.225Z,4.03
2022-09-23T18:50:36.421Z,3.28
2022-09-23T18:53:03.707Z,3.83
2022-09-23T18:55:34.896Z,5.35
2022-09-23T18:58:03.185Z,5.78
2022-09-23T19:00:30.549Z,4.85
2022-09-23T19:02:57.993Z,5.50
2022-09-23T19:05:25.307Z,5.93
2022-09-23T19:07:52.474Z,2.83
2022-09-23T19:10:19.574Z,5.20
2022-09-23T19:12:46.986Z,7.32
2022-09-23T19:15:14.527Z,3.90
2022-09-23T19:17:41.832Z,6.20
2022-09-23T19:20:10.500Z,4.65
2022-09-23T19:22:37.660Z,3.08
2022-09-23T19:25:05.573Z,6.80
2022-09-23T19:27:33.579Z,3.85
2022-09-23T19:30:01.032Z,4.57
2022-09-23T19:32:28.514Z,3.17
2022-09-23T19:34:55.810Z,5.22
2022-09-23T19:37:23.393Z,7.20
2022-09-23T19:39:53.156Z,4.13
2022-09-23T19:42:20.254Z,3.25
2022-09-23T19:44:47.312Z,4.38
2022-09-23T19:47:17.717Z,9.50
2022-09-23T19:49:45.139Z,5.68
2022-09-23T19:52:12.360Z,4.00
2022-09-23T19:54:41.935Z,8.15
2022-09-23T19:57:10.161Z,4.90
2022-09-23T19:59:38.941Z,3.67
2022-09-23T20:02:06.302Z,5.43
2022-09-23T20:04:33.818Z,7.82
2022-09-23T20:07:03.212Z,6.10
2022-09-23T20:09:35.158Z,7.13
2022-09-23T20:12:05.396Z,7.22
2022-09-23T20:14:32.887Z,7.80
2022-09-23T20:17:01.512Z,8.75
2022-09-23T20:19:29.034Z,4.38
2022-09-23T20:22:05.695Z,6.05
2022-09-23T20:24:32.853Z,8.85
2022-09-23T20:27:11.451Z,4.07
2022-09-23T20:29:38.642Z,4.93
2022-09-23T20:32:06.395Z,7.47
2022-09-23T20:34:34.062Z,5.57
2022-09-23T20:37:01.637Z,3.40
2022-09-23T20:42:14.273Z,10.75
2022-09-23T20:44:43.634Z,6.57
2022-09-23T20:47:14.393Z,6.20
2022-09-23T20:49:44.067Z,6.85
2022-09-23T20:52:14.141Z,5.97
2022-09-23T20:54:42.472Z,6.72
2022-09-23T20:57:12.328Z,4.68
2022-09-23T20:59:41.571Z,7.65
2022-09-23T21:02:10.263Z,5.18
2022-09-23T21:04:37.462Z,6.78
2022-09-23T21:07:04.670Z,6.68
2022-09-23T21:09:31.922Z,4.43
2022-09-23T21:11:59.233Z,6.95
2022-09-23T21:14:26.344Z,6.28
2022-09-23T21:16:55.067Z,4.55
2022-09-23T21:19:23.075Z,4.60
2022-09-23T21:21:50.193Z,5.32
2022-09-23T21:24:45.635Z,5.03
2022-09-23T21:27:05.013Z,10.52
2022-09-23T21:29:32.234Z,7.18
2022-09-23T21:31:59.375Z,4.28
2022-09-23T21:34:28.503Z,3.95
2022-09-23T21:36:55.862Z,6.97
2022-09-23T21:39:23.065Z,5.00
2022-09-23T21:41:51.905Z,4.70
2022-09-23T21:44:18.994Z,4.03
2022-09-23T21:46:46.140Z,2.65
2022-09-23T21:49:13.774Z,6.47
2022-09-23T21:51:41.601Z,9.50
2022-09-23T21:54:14.626Z,2.63
2022-09-23T21:56:43.106Z,3.60
2022-09-23T21:59:10.893Z,4.47
2022-09-23T22:01:41.746Z,6.35
2022-09-23T22:04:15.706Z,4.78
2022-09-23T22:06:43.570Z,4.22
2022-09-23T22:09:15.020Z,6.18
2022-09-23T22:11:52.112Z,5.00
2022-09-23T22:14:21.871Z,5.25
2022-09-23T22:16:49.021Z,4.88
2022-09-23T22:19:16.353Z,5.55
2022-09-23T22:21:45.596Z,3.10
2022-09-23T22:24:13.663Z,4.93
2022-09-23T22:26:43.473Z,5.95
2022-09-23T22:29:22.943Z,4.20
2022-09-23T22:32:00.201Z,3.80
2022-09-23T22:34:48.436Z,2.95
2022-09-23T22:37:18.305Z,6.25
2022-09-23T22:39:45.563Z,5.57
2022-09-23T22:42:13.462Z,3.58
2022-09-23T22:44:40.733Z,3.92
2022-09-23T22:47:10.013Z,6.93
2022-09-23T22:49:38.315Z,4.30
2022-09-23T22:52:08.400Z,4.10
2022-09-23T22:54:37.841Z,6.05
2022-09-23T22:57:06.646Z,4.32
2022-09-23T22:59:35.320Z,2.15
2022-09-23T23:02:03.642Z,5.35
2022-09-23T23:04:31.332Z,2.90
2022-09-23T23:06:59.070Z,5.22
2022-09-23T23:09:26.650Z,2.75
2022-09-23T23:11:54.470Z,4.70
2022-09-23T23:14:22.451Z,3.70
2022-09-23T23:16:49.999Z,4.95
2022-09-23T23:19:19.574Z,5.35
2022-09-23T23:21:47.135Z,3.97
2022-09-23T23:24:17.492Z,4.80
2022-09-23T23:26:45.547Z,6.40
2022-09-23T23:29:15.136Z,2.58
2022-09-23T23:31:42.690Z,3.45
2022-09-23T23:34:20.006Z,3.15
2022-09-23T23:36:55.416Z,1.85
2022-09-23T23:39:25.037Z,3.85
2022-09-23T23:41:55.217Z,3.40
2022-09-23T23:44:24.192Z,6.55
2022-09-23T23:46:52.011Z,4.90
2022-09-23T23:49:20.012Z,4.40
2022-09-23T23:51:48.212Z,5.18
2022-09-23T23:54:15.664Z,5.25
2022-09-23T23:56:43.384Z,4.60
2022-09-23T23:59:10.510Z,4.38
